Time;durP1;ratioP1;P1;durP2;ratioP2;P2;SDS_P1;SDS_P2;PMS_P1;PMS_P2;Temp;Humidity;BMP_temperature;BMP_pressure;BME280_temperature;BME280_humidity;BME280_pressure;Samples;Min_cycle;Max_cycle;Signal;HPM_P1;HPM_P2
2022/09/21 00:00:26;;;;;;;5.10;4.47;;;9.70;99.90;;;;;;5079803;28;20962;-80
2022/09/21 00:02:57;;;;;;;4.47;4.03;;;9.80;99.90;;;;;;5080407;28;20472;-80
2022/09/21 00:05:24;;;;;;;6.17;5.57;;;9.80;99.90;;;;;;5081588;28;20468;-79
2022/09/21 00:07:52;;;;;;;4.30;3.90;;;9.70;99.90;;;;;;5080390;28;20472;-79
2022/09/21 00:10:19;;;;;;;6.93;4.60;;;9.50;99.90;;;;;;5079693;28;20513;-80
2022/09/21 00:12:47;;;;;;;7.53;5.07;;;9.40;99.90;;;;;;5079561;28;20469;-80
2022/09/21 00:15:16;;;;;;;5.80;4.47;;;9.30;99.90;;;;;;5079193;28;20423;-80
2022/09/21 00:17:43;;;;;;;4.93;4.43;;;9.30;99.90;;;;;;5079995;28;20991;-80
2022/09/21 00:20:11;;;;;;;5.20;4.70;;;9.30;99.90;;;;;;5079928;28;20448;-80
2022/09/21 00:22:38;;;;;;;4.53;4.13;;;9.30;99.90;;;;;;5079615;28;21000;-80
2022/09/21 00:25:05;;;;;;;5.00;4.10;;;9.30;99.90;;;;;;5079507;28;20837;-80
2022/09/21 00:27:32;;;;;;;4.87;3.73;;;9.30;99.90;;;;;;5078946;28;20509;-80
2022/09/21 00:30:01;;;;;;;4.07;3.70;;;9.30;99.90;;;;;;5079445;28;20501;-80
2022/09/21 00:32:30;;;;;;;4.60;4.20;;;9.40;99.90;;;;;;5079648;28;20468;-80
2022/09/21 00:34:56;;;;;;;7.23;4.50;;;9.30;99.90;;;;;;5079167;28;20427;-80
2022/09/21 00:37:25;;;;;;;5.57;5.07;;;9.30;99.90;;;;;;5079391;28;20440;-80
2022/09/21 00:39:52;;;;;;;4.87;4.37;;;9.30;99.90;;;;;;5078947;28;20478;-80
2022/09/21 00:42:20;;;;;;;4.90;4.50;;;9.60;99.90;;;;;;5100071;22;21070;-77
2022/09/21 00:44:47;;;;;;;4.93;4.53;;;9.30;99.90;;;;;;5076735;28;20443;-77
2022/09/21 00:47:17;;;;;;;3.97;3.63;;;9.30;99.90;;;;;;5076471;28;20483;-77
2022/09/21 00:49:48;;;;;;;4.33;3.90;;;9.30;99.90;;;;;;5076623;28;20490;-77
2022/09/21 00:52:16;;;;;;;4.53;4.13;;;9.50;99.90;;;;;;5076553;28;20436;-77
2022/09/21 00:54:52;;;;;;;4.07;3.77;;;9.30;99.90;;;;;;5077467;28;20515;-77
2022/09/21 00:57:21;;;;;;;4.67;3.50;;;9.20;99.90;;;;;;5084056;28;20436;-77
2022/09/21 00:59:50;;;;;;;3.90;3.60;;;9.30;99.90;;;;;;5084690;28;20471;-77
2022/09/21 01:02:18;;;;;;;9.63;4.23;;;9.20;99.90;;;;;;5079076;28;20478;-78
2022/09/21 01:04:45;;;;;;;2.80;2.60;;;9.30;99.90;;;;;;5077167;28;20810;-78
2022/09/21 01:07:17;;;;;;;3.50;3.20;;;9.30;99.90;;;;;;5076939;28;20831;-78
2022/09/21 01:09:49;;;;;;;3.63;3.33;;;9.40;99.90;;;;;;5077267;28;20437;-78
2022/09/21 01:12:29;;;;;;;4.70;3.93;;;9.50;99.90;;;;;;5077686;28;20864;-78
2022/09/21 01:15:07;;;;;;;3.47;3.17;;;9.40;99.90;;;;;;5078381;28;20435;-78
2022/09/21 01:17:43;;;;;;;3.83;3.43;;;9.50;99.90;;;;;;5081846;28;20794;-78
2022/09/21 01:20:34;;;;;;;5.57;3.47;;;9.50;99.90;;;;;;5078168;28;20964;-78
2022/09/21 01:23:16;;;;;;;4.23;3.83;;;9.70;99.90;;;;;;5077337;28;20472;-78
2022/09/21 01:26:00;;;;;;;4.80;4.37;;;9.80;99.90;;;;;;5076999;28;20518;-78
2022/09/21 01:28:39;;;;;;;4.73;4.43;;;9.70;99.90;;;;;;5079033;28;20447;-78
2022/09/21 01:31:11;;;;;;;4.63;3.40;;;9.70;99.90;;;;;;5079498;28;20435;-77
2022/09/21 01:33:46;;;;;;;3.53;3.00;;;9.60;99.90;;;;;;5091532;28;20467;-77
2022/09/21 01:36:16;;;;;;;3.17;2.80;;;9.60;99.90;;;;;;5092315;28;20411;-77
2022/09/21 01:38:48;;;;;;;5.50;3.30;;;9.50;99.90;;;;;;5090328;28;20498;-78
2022/09/21 01:41:18;;;;;;;4.40;3.87;;;9.60;99.90;;;;;;5078258;28;20436;-78
2022/09/21 01:43:50;;;;;;;4.40;4.00;;;9.50;99.90;;;;;;5076342;28;20893;-78
2022/09/21 01:46:20;;;;;;;2.90;2.70;;;9.40;99.90;;;;;;5076557;28;20440;-78
2022/09/21 01:48:51;;;;;;;4.60;3.30;;;9.50;99.90;;;;;;5076049;28;20436;-78
2022/09/21 01:51:21;;;;;;;3.57;3.07;;;9.40;99.90;;;;;;5076496;28;20509;-78
2022/09/21 01:53:51;;;;;;;3.97;3.77;;;9.30;99.90;;;;;;5075957;28;20562;-78
2022/09/21 01:56:23;;;;;;;3.50;3.20;;;9.30;99.90;;;;;;5075890;28;20996;-78
2022/09/21 01:58:57;;;;;;;3.60;3.27;;;9.30;99.90;;;;;;5075946;28;20489;-78
2022/09/21 02:01:29;;;;;;;4.30;3.23;;;9.30;99.90;;;;;;5075841;28;20439;-78
2022/09/21 02:03:59;;;;;;;4.60;4.20;;;9.30;99.90;;;;;;5075788;28;20475;-78
2022/09/21 02:06:27;;;;;;;5.40;3.93;;;9.30;99.90;;;;;;5076838;28;21012;-78
2022/09/21 02:08:55;;;;;;;3.80;3.50;;;9.30;99.90;;;;;;5082982;28;20471;-78
2022/09/21 02:11:22;;;;;;;4.23;3.83;;;9.30;99.90;;;;;;5084510;28;20452;-77
2022/09/21 02:13:52;;;;;;;4.57;4.17;;;9.20;99.90;;;;;;5087989;28;20472;-77
2022/09/21 02:16:34;;;;;;;5.70;5.07;;;9.20;99.90;;;;;;5088199;28;20445;-77
2022/09/21 02:19:11;;;;;;;4.57;3.87;;;9.20;99.90;;;;;;5081318;28;20794;-78
2022/09/21 02:21:50;;;;;;;5.10;4.27;;;9.10;99.90;;;;;;5077986;28;20441;-78
2022/09/21 02:24:25;;;;;;;7.20;4.30;;;9.10;99.90;;;;;;5077261;28;20471;-78
2022/09/21 02:26:58;;;;;;;5.90;4.40;;;9.10;99.90;;;;;;5075913;28;20827;-78
2022/09/21 02:29:32;;;;;;;5.17;4.20;;;9.10;99.90;;;;;;5075799;28;20410;-78
2022/09/21 02:32:06;;;;;;;8.70;4.83;;;9.20;99.90;;;;;;5075512;28;20415;-78
2022/09/21 02:34:41;;;;;;;4.40;4.00;;;9.00;99.90;;;;;;5075948;28;20404;-78
2022/09/21 02:37:18;;;;;;;5.30;4.00;;;9.00;99.90;;;;;;5079130;28;20435;-78
2022/09/21 02:39:49;;;;;;;4.73;4.30;;;9.00;99.90;;;;;;5086522;28;20440;-77
2022/09/21 02:42:20;;;;;;;4.77;4.37;;;9.00;99.90;;;;;;5088279;28;20464;-77
2022/09/21 02:44:52;;;;;;;5.10;4.60;;;8.90;99.90;;;;;;5089151;28;20406;-78
2022/09/21 02:47:26;;;;;;;4.70;4.20;;;8.90;99.90;;;;;;5089396;28;20464;-77
2022/09/21 02:49:56;;;;;;;3.83;3.53;;;8.90;99.90;;;;;;5087340;28;20516;-77
2022/09/21 02:52:25;;;;;;;4.23;3.83;;;8.80;99.90;;;;;;5082671;28;20994;-78
2022/09/21 02:54:53;;;;;;;5.43;4.00;;;8.70;99.90;;;;;;5075580;28;20447;-78
2022/09/21 02:57:22;;;;;;;7.70;4.57;;;8.70;99.90;;;;;;5074344;28;20445;-78
2022/09/21 02:59:50;;;;;;;6.43;4.40;;;8.80;99.90;;;;;;5074191;28;20451;-78
2022/09/21 03:02:17;;;;;;;4.13;3.57;;;8.80;99.90;;;;;;5073942;28;20491;-78
2022/09/21 03:04:47;;;;;;;5.57;5.03;;;8.80;99.90;;;;;;5078750;28;20452;-77
2022/09/21 03:07:15;;;;;;;4.67;4.03;;;8.90;99.90;;;;;;5079546;28;20551;-77
2022/09/21 03:09:41;;;;;;;4.43;4.00;;;8.90;99.90;;;;;;5081745;28;20930;-77
2022/09/21 03:12:08;;;;;;;4.77;4.37;;;9.00;99.90;;;;;;5075774;28;21043;-78
2022/09/21 03:14:35;;;;;;;4.30;3.90;;;9.00;99.90;;;;;;5075559;28;20473;-78
2022/09/21 03:17:01;;;;;;;5.27;4.77;;;9.00;99.90;;;;;;5074613;28;20495;-78
2022/09/21 03:19:28;;;;;;;3.10;2.90;;;8.90;99.90;;;;;;5074555;28;20529;-79
2022/09/21 03:21:56;;;;;;;3.90;3.60;;;8.90;99.90;;;;;;5074463;28;20452;-78
2022/09/21 03:27:04;;;;;;;4.17;3.80;;;8.90;99.90;;;;;;5073361;28;20495;-78
2022/09/21 03:29:30;;;;;;;5.10;3.67;;;8.90;99.90;;;;;;5074478;28;20448;-77
2022/09/21 03:31:57;;;;;;;3.97;3.57;;;9.00;99.90;;;;;;5074535;28;20447;-77
2022/09/21 03:34:24;;;;;;;3.93;3.63;;;8.90;99.90;;;;;;5073994;28;20427;-78
2022/09/21 03:36:50;;;;;;;5.33;4.00;;;8.90;99.90;;;;;;5074139;28;20448;-78
2022/09/21 03:39:18;;;;;;;5.03;3.17;;;8.80;99.90;;;;;;5074082;28;20419;-78
2022/09/21 03:41:45;;;;;;;3.83;3.53;;;8.80;99.90;;;;;;5073974;28;20450;-78
2022/09/21 03:44:12;;;;;;;3.80;3.13;;;8.90;99.90;;;;;;5073576;28;20487;-78
2022/09/21 03:46:39;;;;;;;4.10;3.47;;;8.80;99.90;;;;;;5073910;28;20484;-78
2022/09/21 03:49:05;;;;;;;3.80;3.40;;;8.70;99.90;;;;;;5073811;28;20452;-78
2022/09/21 03:51:32;;;;;;;4.47;4.07;;;8.70;99.90;;;;;;5073955;28;20874;-78
2022/09/21 03:53:58;;;;;;;4.50;3.93;;;8.70;99.90;;;;;;5073576;28;20445;-78
2022/09/21 03:56:27;;;;;;;4.93;4.20;;;8.70;99.90;;;;;;5074066;28;20451;-78
2022/09/21 03:58:54;;;;;;;3.90;3.60;;;8.70;99.90;;;;;;5073860;28;20510;-78
2022/09/21 04:01:20;;;;;;;5.33;3.90;;;8.70;99.90;;;;;;5074983;28;20939;-77
2022/09/21 04:03:47;;;;;;;7.57;4.93;;;8.70;99.90;;;;;;5073660;28;20475;-78
2022/09/21 04:06:14;;;;;;;7.17;4.80;;;8.70;99.90;;;;;;5073492;28;20883;-78
2022/09/21 04:08:41;;;;;;;4.70;4.30;;;8.60;99.90;;;;;;5074274;28;20472;-78
2022/09/21 04:11:10;;;;;;;4.30;4.00;;;8.70;99.90;;;;;;5074238;28;20481;-78
2022/09/21 04:13:38;;;;;;;4.73;4.33;;;8.70;99.90;;;;;;5074286;28;20494;-78
2022/09/21 04:16:05;;;;;;;5.83;4.30;;;8.60;99.90;;;;;;5073882;28;20448;-78
2022/09/21 04:18:32;;;;;;;5.83;4.60;;;8.60;99.90;;;;;;5073929;28;20794;-78
2022/09/21 04:20:59;;;;;;;7.37;4.30;;;8.50;99.90;;;;;;5074646;28;20783;-78
2022/09/21 04:23:26;;;;;;;4.67;4.00;;;8.60;99.90;;;;;;5074583;28;20475;-78
2022/09/21 04:25:54;;;;;;;4.70;4.40;;;8.60;99.90;;;;;;5074045;28;20422;-78
2022/09/21 04:28:22;;;;;;;4.00;3.70;;;8.60;99.90;;;;;;5074179;28;20550;-78
2022/09/21 04:30:52;;;;;;;5.03;4.00;;;8.70;99.90;;;;;;5073900;28;20483;-78
2022/09/21 04:33:19;;;;;;;6.13;5.50;;;8.70;99.90;;;;;;5075360;28;20442;-78
2022/09/21 04:35:47;;;;;;;6.57;4.23;;;8.60;99.90;;;;;;5078097;28;20812;-79
2022/09/21 04:38:13;;;;;;;5.63;4.30;;;8.60;99.90;;;;;;5077960;28;20498;-79
2022/09/21 04:40:40;;;;;;;7.57;4.63;;;8.60;99.90;;;;;;5079572;28;20524;-79
2022/09/21 04:43:06;;;;;;;5.00;4.60;;;8.60;99.90;;;;;;5077267;28;20532;-79
2022/09/21 04:45:34;;;;;;;5.33;4.40;;;8.60;99.90;;;;;;5077820;28;20452;-79
2022/09/21 04:48:02;;;;;;;6.50;4.40;;;8.60;99.90;;;;;;5077516;28;20828;-79
2022/09/21 04:50:29;;;;;;;4.70;4.30;;;8.60;99.90;;;;;;5078448;28;20505;-79
2022/09/21 04:52:57;;;;;;;4.50;4.10;;;8.60;99.90;;;;;;5078195;28;20540;-79
2022/09/21 04:55:23;;;;;;;6.10;4.47;;;8.70;99.90;;;;;;5078450;28;20480;-79
2022/09/21 04:57:50;;;;;;;5.00;4.30;;;8.80;99.90;;;;;;5077910;28;20438;-78
2022/09/21 05:00:18;;;;;;;4.90;4.40;;;8.70;99.90;;;;;;5082150;28;20214;-78
2022/09/21 05:02:45;;;;;;;5.10;3.90;;;8.70;99.90;;;;;;5083098;28;20578;-78
2022/09/21 05:05:13;;;;;;;4.20;4.00;;;8.80;99.90;;;;;;5081033;28;20445;-78
2022/09/21 05:07:39;;;;;;;4.20;3.90;;;8.80;99.90;;;;;;5086521;28;20453;-78
2022/09/21 05:10:07;;;;;;;5.67;5.07;;;8.80;99.90;;;;;;5088656;28;20444;-78
2022/09/21 05:12:35;;;;;;;6.10;4.10;;;8.60;99.90;;;;;;5089479;28;20430;-78
2022/09/21 05:15:02;;;;;;;6.30;4.00;;;8.70;99.90;;;;;;5090971;28;20244;-78
2022/09/21 05:17:29;;;;;;;6.60;5.00;;;8.70;99.90;;;;;;5089322;28;20467;-78
2022/09/21 05:19:55;;;;;;;5.67;5.07;;;8.70;99.90;;;;;;5080392;28;20494;-79
2022/09/21 05:22:24;;;;;;;4.57;4.17;;;8.70;99.90;;;;;;5080852;28;20467;-79
2022/09/21 05:24:50;;;;;;;4.83;4.43;;;8.80;99.90;;;;;;5083589;28;20546;-77
2022/09/21 05:27:17;;;;;;;6.73;4.10;;;8.90;99.90;;;;;;5080173;28;20481;-77
2022/09/21 05:29:44;;;;;;;4.33;4.00;;;8.90;99.90;;;;;;5077437;28;20451;-77
2022/09/21 05:32:17;;;;;;;5.13;4.35;;;8.80;99.90;;;;;;5075927;28;20809;-77
2022/09/21 05:34:54;;;;;;;4.10;3.80;;;8.90;99.90;;;;;;5076576;28;20251;-77
2022/09/21 05:37:39;;;;;;;6.37;4.87;;;8.80;99.90;;;;;;5076163;28;20828;-77
2022/09/21 05:40:07;;;;;;;6.23;4.27;;;8.80;99.90;;;;;;5076998;28;20436;-78
2022/09/21 05:42:34;;;;;;;4.93;4.53;;;8.80;99.90;;;;;;5078230;28;20549;-78
2022/09/21 05:45:01;;;;;;;4.87;4.03;;;8.80;99.90;;;;;;5076973;28;20460;-78
2022/09/21 05:47:38;;;;;;;8.43;5.30;;;8.90;99.90;;;;;;5077261;28;20458;-78
2022/09/21 05:50:19;;;;;;;5.80;5.20;;;8.80;99.90;;;;;;5077414;28;20438;-79
2022/09/21 05:52:54;;;;;;;8.83;5.57;;;8.80;99.90;;;;;;5077913;28;20479;-78
2022/09/21 05:55:29;;;;;;;5.03;4.60;;;8.80;99.90;;;;;;5077565;28;20445;-78
2022/09/21 05:58:03;;;;;;;5.60;5.10;;;8.80;99.90;;;;;;5076817;28;20416;-78
2022/09/21 06:00:40;;;;;;;7.70;6.30;;;8.90;99.90;;;;;;5076330;28;20454;-78
2022/09/21 06:03:28;;;;;;;5.77;5.23;;;9.00;99.90;;;;;;5075288;28;20462;-78
2022/09/21 06:05:55;;;;;;;6.93;6.23;;;9.10;99.90;;;;;;5068067;28;20539;-78
2022/09/21 06:08:23;;;;;;;6.50;5.90;;;9.10;99.90;;;;;;5076746;28;20484;-78
2022/09/21 06:10:51;;;;;;;8.23;6.80;;;9.10;99.90;;;;;;5076218;28;20802;-78
2022/09/21 06:13:18;;;;;;;7.80;5.90;;;9.20;99.90;;;;;;5076338;28;20456;-78
2022/09/21 06:15:44;;;;;;;7.70;6.00;;;9.20;99.90;;;;;;5078287;28;20455;-78
2022/09/21 06:18:11;;;;;;;5.33;4.60;;;9.30;99.90;;;;;;5078394;28;20501;-78
2022/09/21 06:20:38;;;;;;;7.90;5.50;;;9.30;99.90;;;;;;5083992;28;20444;-78
2022/09/21 06:23:07;;;;;;;9.70;6.20;;;9.40;99.90;;;;;;5082352;28;20983;-77
2022/09/21 06:25:35;;;;;;;7.97;6.20;;;9.30;99.90;;;;;;5081739;28;20494;-77
2022/09/21 06:28:04;;;;;;;8.40;5.67;;;9.20;99.90;;;;;;5077840;28;20477;-79
2022/09/21 06:30:32;;;;;;;6.80;5.93;;;9.30;99.90;;;;;;5076497;28;20529;-78
2022/09/21 06:32:59;;;;;;;6.10;5.60;;;9.30;99.90;;;;;;5077169;28;20468;-78
2022/09/21 06:35:26;;;;;;;6.83;6.23;;;9.40;99.90;;;;;;5076338;28;20462;-77
2022/09/21 06:37:57;;;;;;;9.40;6.20;;;9.40;99.90;;;;;;5075224;28;20449;-77
2022/09/21 06:40:23;;;;;;;7.63;6.40;;;9.50;99.90;;;;;;5074713;28;20449;-78
2022/09/21 06:42:55;;;;;;;9.37;6.03;;;9.70;99.90;;;;;;5091691;22;20512;-77
2022/09/21 06:45:22;;;;;;;8.73;6.60;;;9.70;99.90;;;;;;5088075;28;20432;-78
2022/09/21 06:47:49;;;;;;;6.93;6.33;;;9.80;99.90;;;;;;5086943;28;20485;-79
2022/09/21 06:50:15;;;;;;;7.57;6.87;;;9.90;99.90;;;;;;5081863;28;20550;-79
2022/09/21 06:52:42;;;;;;;9.27;6.80;;;9.90;99.90;;;;;;5091401;28;20463;-78
2022/09/21 06:55:09;;;;;;;8.10;7.30;;;9.90;99.90;;;;;;5092726;28;20479;-79
2022/09/21 06:57:37;;;;;;;8.43;7.63;;;10.00;99.90;;;;;;5089881;28;20441;-79
2022/09/21 07:00:08;;;;;;;7.63;6.23;;;10.10;99.90;;;;;;5078849;28;20506;-80
2022/09/21 07:02:35;;;;;;;7.67;6.87;;;10.50;99.90;;;;;;5079237;28;20436;-80
2022/09/21 07:05:01;;;;;;;10.50;8.37;;;10.40;99.90;;;;;;5077408;28;20463;-80
2022/09/21 07:07:30;;;;;;;10.13;8.83;;;10.40;99.90;;;;;;5079394;28;20484;-79
2022/09/21 07:09:57;;;;;;;9.43;8.53;;;10.50;99.90;;;;;;5081110;28;20523;-80
2022/09/21 07:12:25;;;;;;;9.70;8.03;;;10.70;99.90;;;;;;5077387;28;20448;-79
2022/09/21 07:14:51;;;;;;;10.00;8.57;;;10.30;99.90;;;;;;5078166;28;20580;-80
2022/09/21 07:17:19;;;;;;;9.60;8.70;;;10.50;99.90;;;;;;5077118;28;20443;-79
2022/09/21 07:19:46;;;;;;;11.43;7.97;;;10.60;99.90;;;;;;5077635;28;20801;-79
2022/09/21 07:22:13;;;;;;;8.23;7.53;;;10.60;99.90;;;;;;5076749;28;20444;-80
2022/09/21 07:24:40;;;;;;;9.03;8.23;;;10.70;99.90;;;;;;5076673;28;20464;-79
2022/09/21 07:27:06;;;;;;;9.80;8.43;;;10.70;99.90;;;;;;5077323;28;20452;-80
2022/09/21 07:29:33;;;;;;;10.30;9.23;;;10.80;99.90;;;;;;5077446;28;20485;-79
2022/09/21 07:32:00;;;;;;;8.60;7.80;;;11.00;99.90;;;;;;5078209;28;20525;-79
2022/09/21 07:34:28;;;;;;;13.80;8.60;;;11.00;99.90;;;;;;5075809;28;20446;-79
2022/09/21 07:36:54;;;;;;;11.43;8.50;;;11.10;99.90;;;;;;5076356;28;20494;-79
2022/09/21 07:39:21;;;;;;;8.60;7.77;;;11.20;99.90;;;;;;5075788;28;20449;-79
2022/09/21 07:41:48;;;;;;;11.47;8.17;;;11.10;99.90;;;;;;5076835;28;20422;-79
2022/09/21 07:44:14;;;;;;;12.37;8.97;;;11.20;99.90;;;;;;5079344;28;20473;-79
2022/09/21 07:46:41;;;;;;;10.53;8.50;;;11.20;99.90;;;;;;5079315;28;20528;-80
2022/09/21 07:49:08;;;;;;;11.43;9.43;;;11.20;99.90;;;;;;5076318;28;20480;-80
2022/09/21 07:51:36;;;;;;;12.03;8.80;;;11.20;99.90;;;;;;5076113;28;20468;-80
2022/09/21 07:54:04;;;;;;;12.00;9.03;;;11.20;99.90;;;;;;5075945;28;20461;-80
2022/09/21 07:56:31;;;;;;;9.77;8.87;;;11.10;99.90;;;;;;5076417;28;20480;-81
2022/09/21 07:59:06;;;;;;;11.47;10.27;;;11.20;99.90;;;;;;5076115;28;20452;-81
2022/09/21 08:01:34;;;;;;;12.67;11.37;;;11.30;99.90;;;;;;5075663;28;20998;-80
2022/09/21 08:04:01;;;;;;;13.77;10.30;;;11.10;99.90;;;;;;5078124;28;20472;-80
2022/09/21 08:06:32;;;;;;;13.17;10.47;;;10.90;99.90;;;;;;5077200;28;20456;-80
2022/09/21 08:09:00;;;;;;;10.13;9.10;;;10.90;99.90;;;;;;5080470;28;20465;-78
2022/09/21 08:11:29;;;;;;;10.47;9.13;;;11.20;99.90;;;;;;5083599;28;20943;-79
2022/09/21 08:13:57;;;;;;;11.50;7.87;;;11.30;99.90;;;;;;5083769;28;20477;-78
2022/09/21 08:16:24;;;;;;;8.63;7.00;;;11.50;99.90;;;;;;5083740;28;20502;-78
2022/09/21 08:18:51;;;;;;;8.23;6.23;;;11.60;99.90;;;;;;5083601;28;20943;-80
2022/09/21 08:21:19;;;;;;;9.27;6.23;;;11.70;99.90;;;;;;5082891;28;20448;-80
2022/09/21 08:23:47;;;;;;;11.63;7.63;;;11.90;99.90;;;;;;5089088;28;20464;-79
2022/09/21 08:26:17;;;;;;;7.43;6.60;;;11.90;99.90;;;;;;5086990;28;20550;-80
2022/09/21 08:28:47;;;;;;;9.27;6.67;;;11.80;99.90;;;;;;5080907;28;20468;-81
2022/09/21 08:31:14;;;;;;;6.53;5.93;;;11.80;99.90;;;;;;5083203;28;20455;-79
2022/09/21 08:33:41;;;;;;;8.27;6.87;;;11.90;99.90;;;;;;5082026;28;20469;-80
2022/09/21 08:36:09;;;;;;;7.50;6.70;;;12.10;99.90;;;;;;5082772;28;20423;-79
2022/09/21 08:38:51;;;;;;;6.90;5.77;;;12.20;99.90;;;;;;5079922;28;20782;-79
2022/09/21 08:44:08;;;;;;;6.27;5.67;;;12.40;99.90;;;;;;5078764;28;20490;-79
2022/09/21 08:46:37;;;;;;;9.37;6.93;;;13.00;99.90;;;;;;5079468;28;20441;-80
2022/09/21 08:49:09;;;;;;;6.73;6.13;;;12.60;99.90;;;;;;5078551;28;20480;-80
2022/09/21 08:51:38;;;;;;;9.77;5.97;;;12.70;99.90;;;;;;5082674;28;20451;-80
2022/09/21 08:54:13;;;;;;;6.60;5.97;;;12.80;99.90;;;;;;5088522;28;20488;-77
2022/09/21 08:56:41;;;;;;;7.10;6.10;;;12.80;99.90;;;;;;5087522;28;20449;-79
2022/09/21 08:59:14;;;;;;;6.77;6.10;;;12.80;99.90;;;;;;5078777;28;20930;-80
2022/09/21 09:01:52;;;;;;;7.70;6.43;;;12.90;99.90;;;;;;5080176;28;20445;-80
2022/09/21 09:04:32;;;;;;;6.10;5.07;;;12.90;99.90;;;;;;5078208;28;20468;-80
2022/09/21 09:07:09;;;;;;;5.50;5.00;;;13.00;99.90;;;;;;5078677;28;20437;-79
2022/09/21 09:10:06;;;;;;;9.57;6.27;;;13.00;99.90;;;;;;5078588;28;20478;-80
2022/09/21 09:12:48;;;;;;;9.83;5.70;;;13.30;99.90;;;;;;5078406;28;20512;-80
2022/09/21 09:15:26;;;;;;;5.23;4.83;;;13.10;99.90;;;;;;5077865;28;20429;-79
2022/09/21 09:17:58;;;;;;;12.20;7.60;;;13.10;99.90;;;;;;5084992;28;20433;-78
2022/09/21 09:20:32;;;;;;;10.50;5.97;;;13.10;99.90;;;;;;5084061;28;20429;-78
2022/09/21 09:23:06;;;;;;;6.50;5.90;;;13.10;99.90;;;;;;5078640;28;20461;-80
2022/09/21 09:25:37;;;;;;;13.43;5.70;;;13.10;99.90;;;;;;5084183;28;20436;-78
2022/09/21 09:28:20;;;;;;;10.80;5.17;;;13.20;99.90;;;;;;5088566;28;20473;-78
2022/09/21 09:30:51;;;;;;;5.10;4.70;;;13.40;99.90;;;;;;5086874;28;20466;-78
2022/09/21 09:33:22;;;;;;;4.70;4.20;;;13.50;99.90;;;;;;5082972;28;20477;-78
2022/09/21 09:35:52;;;;;;;10.10;4.93;;;13.40;99.90;;;;;;5083985;28;20422;-79
2022/09/21 09:38:25;;;;;;;5.00;4.53;;;13.50;99.90;;;;;;5078982;28;20981;-79
2022/09/21 09:41:16;;;;;;;5.10;4.53;;;13.50;99.90;;;;;;5080512;28;20433;-78
2022/09/21 09:43:57;;;;;;;6.23;4.80;;;13.50;99.90;;;;;;5083337;28;20484;-77
2022/09/21 09:46:32;;;;;;;4.83;4.27;;;13.50;99.90;;;;;;5079453;28;20440;-80
2022/09/21 09:49:15;;;;;;;9.60;4.97;;;13.50;99.90;;;;;;5079323;28;20477;-79
2022/09/21 09:51:42;;;;;;;5.40;4.60;;;13.50;99.90;;;;;;5079325;28;20433;-79
2022/09/21 09:54:14;;;;;;;8.33;4.80;;;13.60;99.90;;;;;;5077808;28;20991;-80
2022/09/21 09:56:41;;;;;;;3.90;3.43;;;13.60;99.90;;;;;;5077583;28;20433;-80
2022/09/21 09:59:18;;;;;;;4.07;3.38;;;13.30;99.90;;;;;;5077533;28;20857;-81
2022/09/21 10:01:57;;;;;;;5.70;3.90;;;13.70;99.90;;;;;;5077508;28;20209;-80
2022/09/21 10:04:23;;;;;;;4.03;3.70;;;13.80;99.90;;;;;;5077623;28;20476;-79
2022/09/21 10:06:50;;;;;;;8.13;3.20;;;13.80;99.90;;;;;;5076957;28;20445;-79
2022/09/21 10:09:25;;;;;;;10.27;3.67;;;13.80;99.90;;;;;;5077674;28;20541;-79
2022/09/21 10:11:52;;;;;;;3.13;2.90;;;13.80;99.90;;;;;;5078239;28;20432;-79
2022/09/21 10:14:22;;;;;;;3.37;3.07;;;13.90;99.90;;;;;;5078004;28;20472;-79
2022/09/21 10:16:51;;;;;;;3.27;2.60;;;13.90;99.90;;;;;;5077170;28;20436;-78
2022/09/21 10:19:21;;;;;;;4.33;2.73;;;14.00;99.90;;;;;;5076390;28;20451;-79
2022/09/21 10:21:49;;;;;;;5.20;3.10;;;14.10;99.90;;;;;;5081576;28;20445;-79
2022/09/21 10:24:23;;;;;;;3.07;1.83;;;14.10;99.90;;;;;;5078411;28;20481;-79
2022/09/21 10:26:53;;;;;;;3.33;2.07;;;14.10;99.90;;;;;;5078307;28;20487;-77
2022/09/21 10:29:31;;;;;;;2.93;2.70;;;14.20;99.90;;;;;;5076554;28;20530;-80
2022/09/21 10:31:59;;;;;;;6.13;3.87;;;14.20;99.90;;;;;;5083267;28;20436;-78
2022/09/21 10:34:29;;;;;;;1.33;1.23;;;14.30;99.90;;;;;;5084154;28;20526;-78
2022/09/21 10:36:57;;;;;;;5.00;2.53;;;14.40;99.90;;;;;;5083160;28;20444;-77
2022/09/21 10:39:27;;;;;;;2.00;1.90;;;14.40;99.90;;;;;;5082216;28;21007;-77
2022/09/21 10:42:04;;;;;;;4.17;3.80;;;14.50;99.90;;;;;;5082552;28;20449;-80
2022/09/21 10:44:39;;;;;;;4.60;3.90;;;14.50;99.90;;;;;;5078450;28;20559;-81
2022/09/21 10:47:19;;;;;;;5.10;2.40;;;14.60;99.90;;;;;;5082805;28;20433;-80
2022/09/21 10:49:49;;;;;;;3.23;1.87;;;14.70;99.90;;;;;;5091667;28;20469;-78
2022/09/21 10:52:18;;;;;;;3.40;1.53;;;14.70;99.90;;;;;;5091995;28;20432;-78
2022/09/21 10:54:50;;;;;;;2.13;1.23;;;14.70;99.90;;;;;;5088584;28;20448;-78
2022/09/21 10:57:20;;;;;;;1.90;1.63;;;14.80;99.90;;;;;;5085040;28;20520;-78
2022/09/21 10:59:48;;;;;;;2.23;1.27;;;14.90;99.90;;;;;;5079982;28;20441;-79
2022/09/21 11:02:37;;;;;;;1.20;1.10;;;14.90;99.90;;;;;;5080489;28;20443;-78
2022/09/21 11:05:11;;;;;;;1.30;1.20;;;15.00;99.90;;;;;;5084101;28;20444;-77
2022/09/21 11:07:45;;;;;;;1.57;1.47;;;15.10;1.00;;;;;;5085729;28;20451;-78
2022/09/21 11:10:21;;;;;;;0.87;0.87;;;15.20;1.00;;;;;;5086170;28;20473;-78
2022/09/21 11:13:11;;;;;;;1.17;1.07;;;15.30;99.90;;;;;;5085831;28;20467;-77
2022/09/21 11:15:45;;;;;;;1.50;1.40;;;15.30;99.90;;;;;;5084723;28;20799;-78
2022/09/21 11:18:21;;;;;;;1.57;1.47;;;15.40;99.90;;;;;;5084387;28;20516;-81
2022/09/21 11:20:52;;;;;;;1.43;1.33;;;15.50;1.00;;;;;;5082897;28;20460;-80
2022/09/21 11:23:28;;;;;;;3.43;1.33;;;15.50;99.90;;;;;;5084741;28;20445;-79
2022/09/21 11:26:03;;;;;;;1.10;1.10;;;15.60;1.00;;;;;;5081378;28;20427;-80
2022/09/21 11:28:36;;;;;;;3.13;1.37;;;15.70;99.90;;;;;;5076847;28;20447;-80
2022/09/21 11:31:18;;;;;;;1.43;1.17;;;15.70;99.90;;;;;;5075840;28;20425;-80
2022/09/21 11:34:09;;;;;;;4.20;3.43;;;15.80;99.90;;;;;;5083216;28;20469;-80
2022/09/21 11:36:46;;;;;;;1.83;1.67;;;15.80;1.00;;;;;;5079536;28;20970;-80
2022/09/21 11:39:22;;;;;;;1.30;1.20;;;15.80;1.00;;;;;;5076472;28;20428;-80
2022/09/21 11:41:59;;;;;;;1.93;0.97;;;15.90;1.00;;;;;;5079240;28;20461;-80
2022/09/21 11:44:45;;;;;;;2.53;1.50;;;15.90;1.00;;;;;;5082529;28;20479;-80
2022/09/21 11:47:23;;;;;;;2.60;1.47;;;16.00;99.90;;;;;;5083396;28;20433;-80
2022/09/21 11:50:14;;;;;;;2.40;1.10;;;16.00;1.00;;;;;;5082785;28;20464;-80
2022/09/21 11:52:55;;;;;;;3.10;1.77;;;16.00;1.00;;;;;;5082326;28;21036;-81
2022/09/21 11:56:02;;;;;;;1.83;1.40;;;15.90;1.00;;;;;;5083003;28;20428;-81
2022/09/21 11:58:36;;;;;;;2.53;1.70;;;15.80;99.90;;;;;;5084147;28;20451;-80
2022/09/21 12:01:16;;;;;;;1.70;1.60;;;15.90;97.70;;;;;;5088188;28;20459;-81
2022/09/21 12:04:04;;;;;;;1.87;1.33;;;15.90;99.90;;;;;;5084265;28;20809;-79
2022/09/21 12:06:43;;;;;;;2.70;2.50;;;15.80;1.00;;;;;;5084654;28;20433;-79
2022/09/21 12:09:56;;;;;;;2.60;1.57;;;15.90;23.00;;;;;;5082663;28;21004;-80
2022/09/21 12:12:29;;;;;;;7.40;1.60;;;15.70;99.90;;;;;;5083713;28;20428;-81
2022/09/21 12:15:02;;;;;;;3.33;2.43;;;16.00;99.90;;;;;;5082943;28;20903;-80
2022/09/21 12:17:38;;;;;;;1.60;1.50;;;15.90;1.00;;;;;;5082809;28;20434;-81
2022/09/21 12:20:16;;;;;;;1.30;1.20;;;15.80;1.00;;;;;;5083156;28;20490;-81
2022/09/21 12:22:46;;;;;;;2.50;1.13;;;15.50;99.90;;;;;;5083091;28;20468;-80
2022/09/21 12:25:17;;;;;;;2.20;1.47;;;15.40;1.00;;;;;;5082641;28;20452;-79
2022/09/21 12:27:49;;;;;;;1.50;1.40;;;15.10;1.00;;;;;;5088195;28;20425;-80
2022/09/21 12:30:21;;;;;;;1.80;1.60;;;14.80;1.00;;;;;;5087147;28;20499;-81
2022/09/21 12:32:56;;;;;;;2.57;1.60;;;14.50;1.00;;;;;;5082703;28;20520;-81
2022/09/21 12:35:32;;;;;;;2.43;1.77;;;14.50;1.00;;;;;;5082479;28;20505;-80
2022/09/21 12:38:04;;;;;;;1.53;1.40;;;14.50;93.80;;;;;;5082293;28;20435;-79
2022/09/21 12:40:37;;;;;;;1.67;1.37;;;14.70;1.00;;;;;;5082190;28;20433;-81
2022/09/21 12:43:16;;;;;;;1.40;1.30;;;15.00;1.00;;;;;;5102981;22;20484;-79
2022/09/21 12:45:47;;;;;;;1.30;1.20;;;14.80;1.00;;;;;;5080729;28;20441;-79
2022/09/21 12:48:26;;;;;;;1.57;1.43;;;14.90;99.90;;;;;;5081060;28;20896;-79
2022/09/21 12:50:57;;;;;;;1.20;1.10;;;15.10;99.90;;;;;;5087899;28;20465;-78
2022/09/21 12:53:26;;;;;;;1.53;1.33;;;15.30;99.90;;;;;;5087019;28;20475;-77
2022/09/21 12:56:01;;;;;;;3.83;1.20;;;15.50;1.00;;;;;;5088081;28;20448;-78
2022/09/21 12:58:42;;;;;;;1.20;1.10;;;15.60;99.90;;;;;;5077629;28;20947;-78
2022/09/21 13:01:19;;;;;;;1.30;1.20;;;15.80;1.00;;;;;;5080954;28;20440;-78
2022/09/21 13:03:54;;;;;;;2.77;1.30;;;15.80;1.00;;;;;;5084415;28;20456;-77
2022/09/21 13:06:54;;;;;;;1.70;1.17;;;15.70;1.00;;;;;;5079277;28;20429;-78
2022/09/21 13:09:22;;;;;;;2.13;1.67;;;15.70;99.90;;;;;;5078250;28;20483;-77
2022/09/21 13:11:55;;;;;;;4.50;2.30;;;15.40;99.90;;;;;;5078771;28;20444;-78
2022/09/21 13:14:24;;;;;;;1.87;1.60;;;15.50;29.10;;;;;;5077100;28;20535;-78
2022/09/21 13:16:57;;;;;;;1.30;1.20;;;15.60;1.00;;;;;;5077300;28;20506;-77
2022/09/21 13:19:26;;;;;;;1.60;1.50;;;15.70;99.90;;;;;;5077100;28;20441;-77